sensor_id;sensor_type;location;lat;lon;timestamp;P1;durP1;ratioP1;P2;durP2;ratioP2
74152;SDS011;62505;46.070;14.492;2022-11-15T00:02:14;14.90;;;12.30;;
74152;SDS011;62505;46.070;14.492;2022-11-15T00:04:42;16.35;;;12.75;;
74152;SDS011;62505;46.070;14.492;2022-11-15T00:07:09;15.88;;;12.63;;
74152;SDS011;62505;46.070;14.492;2022-11-15T00:09:36;16.92;;;13.25;;
74152;SDS011;62505;46.070;14.492;2022-11-15T00:12:03;15.10;;;12.85;;
74152;SDS011;62505;46.070;14.492;2022-11-15T00:14:30;16.70;;;13.30;;
74152;SDS011;62505;46.070;14.492;2022-11-15T00:16:57;15.38;;;13.05;;
74152;SDS011;62505;46.070;14.492;2022-11-15T00:19:24;16.80;;;13.07;;
74152;SDS011;62505;46.070;14.492;2022-11-15T00:21:52;15.50;;;13.07;;
74152;SDS011;62505;46.070;14.492;2022-11-15T00:24:19;16.42;;;12.95;;
74152;SDS011;62505;46.070;14.492;2022-11-15T00:26:46;18.27;;;13.95;;
74152;SDS011;62505;46.070;14.492;2022-11-15T00:29:13;15.60;;;12.90;;
74152;SDS011;62505;46.070;14.492;2022-11-15T00:31:40;16.00;;;13.40;;
74152;SDS011;62505;46.070;14.492;2022-11-15T00:34:07;16.95;;;13.05;;
74152;SDS011;62505;46.070;14.492;2022-11-15T00:36:35;14.80;;;12.40;;
74152;SDS011;62505;46.070;14.492;2022-11-15T00:39:04;17.02;;;13.20;;
74152;SDS011;62505;46.070;14.492;2022-11-15T00:41:31;15.40;;;12.13;;
74152;SDS011;62505;46.070;14.492;2022-11-15T00:43:58;15.95;;;13.25;;
74152;SDS011;62505;46.070;14.492;2022-11-15T00:46:25;15.60;;;12.90;;
74152;SDS011;62505;46.070;14.492;2022-11-15T00:48:52;17.20;;;13.80;;
74152;SDS011;62505;46.070;14.492;2022-11-15T00:51:19;16.48;;;13.00;;
74152;SDS011;62505;46.070;14.492;2022-11-15T00:53:46;16.48;;;13.43;;
74152;SDS011;62505;46.070;14.492;2022-11-15T00:56:14;16.67;;;13.00;;
74152;SDS011;62505;46.070;14.492;2022-11-15T00:58:41;16.40;;;12.73;;
74152;SDS011;62505;46.070;14.492;2022-11-15T01:01:08;17.00;;;13.82;;
74152;SDS011;62505;46.070;14.492;2022-11-15T01:03:37;18.65;;;12.98;;
74152;SDS011;62505;46.070;14.492;2022-11-15T01:06:04;14.25;;;11.98;;
74152;SDS011;62505;46.070;14.492;2022-11-15T01:08:32;16.42;;;12.02;;
74152;SDS011;62505;46.070;14.492;2022-11-15T01:11:00;16.23;;;12.52;;
74152;SDS011;62505;46.070;14.492;2022-11-15T01:13:30;15.00;;;12.38;;
74152;SDS011;62505;46.070;14.492;2022-11-15T01:15:58;13.95;;;11.93;;
74152;SDS011;62505;46.070;14.492;2022-11-15T01:18:31;14.35;;;12.18;;
74152;SDS011;62505;46.070;14.492;2022-11-15T01:20:58;16.65;;;12.85;;
74152;SDS011;62505;46.070;14.492;2022-11-15T01:23:25;14.38;;;11.55;;
74152;SDS011;62505;46.070;14.492;2022-11-15T01:25:52;15.27;;;12.57;;
74152;SDS011;62505;46.070;14.492;2022-11-15T01:28:24;15.57;;;11.85;;
74152;SDS011;62505;46.070;14.492;2022-11-15T01:30:52;14.55;;;12.07;;
74152;SDS011;62505;46.070;14.492;2022-11-15T01:33:19;13.90;;;12.10;;
74152;SDS011;62505;46.070;14.492;2022-11-15T01:35:46;16.10;;;13.02;;
74152;SDS011;62505;46.070;14.492;2022-11-15T01:38:13;20.20;;;12.52;;
74152;SDS011;62505;46.070;14.492;2022-11-15T01:40:40;14.18;;;12.27;;
74152;SDS011;62505;46.070;14.492;2022-11-15T01:43:20;16.75;;;13.02;;
74152;SDS011;62505;46.070;14.492;2022-11-15T01:45:49;16.02;;;12.88;;
74152;SDS011;62505;46.070;14.492;2022-11-15T01:48:23;14.35;;;12.32;;
74152;SDS011;62505;46.070;14.492;2022-11-15T01:50:54;15.52;;;12.88;;
74152;SDS011;62505;46.070;14.492;2022-11-15T01:53:21;13.90;;;11.85;;
74152;SDS011;62505;46.070;14.492;2022-11-15T01:55:50;14.75;;;12.40;;
74152;SDS011;62505;46.070;14.492;2022-11-15T01:58:18;14.32;;;12.18;;
74152;SDS011;62505;46.070;14.492;2022-11-15T02:00:45;14.40;;;12.82;;
74152;SDS011;62505;46.070;14.492;2022-11-15T02:03:14;14.30;;;12.40;;
74152;SDS011;62505;46.070;14.492;2022-11-15T02:05:41;15.45;;;12.27;;
74152;SDS011;62505;46.070;14.492;2022-11-15T02:08:10;14.25;;;11.25;;
74152;SDS011;62505;46.070;14.492;2022-11-15T02:10:44;13.98;;;12.10;;
74152;SDS011;62505;46.070;14.492;2022-11-15T02:13:11;13.45;;;11.80;;
74152;SDS011;62505;46.070;14.492;2022-11-15T02:15:40;14.90;;;12.50;;
74152;SDS011;62505;46.070;14.492;2022-11-15T02:18:21;16.08;;;12.27;;
74152;SDS011;62505;46.070;14.492;2022-11-15T02:27:04;14.23;;;12.15;;
74152;SDS011;62505;46.070;14.492;2022-11-15T02:30:04;16.25;;;12.00;;
74152;SDS011;62505;46.070;14.492;2022-11-15T02:32:48;14.95;;;12.05;;
74152;SDS011;62505;46.070;14.492;2022-11-15T02:35:21;16.42;;;11.85;;
74152;SDS011;62505;46.070;14.492;2022-11-15T02:37:55;13.30;;;11.13;;
74152;SDS011;62505;46.070;14.492;2022-11-15T02:40:27;14.43;;;12.38;;
74152;SDS011;62505;46.070;14.492;2022-11-15T02:43:02;14.95;;;12.73;;
74152;SDS011;62505;46.070;14.492;2022-11-15T02:45:54;15.75;;;12.18;;
74152;SDS011;62505;46.070;14.492;2022-11-15T02:48:28;13.75;;;11.70;;
74152;SDS011;62505;46.070;14.492;2022-11-15T02:50:57;15.68;;;12.25;;
74152;SDS011;62505;46.070;14.492;2022-11-15T02:53:25;13.50;;;11.40;;
74152;SDS011;62505;46.070;14.492;2022-11-15T02:55:53;13.80;;;11.57;;
74152;SDS011;62505;46.070;14.492;2022-11-15T03:01:18;14.40;;;11.40;;
74152;SDS011;62505;46.070;14.492;2022-11-15T03:03:59;14.70;;;12.20;;
74152;SDS011;62505;46.070;14.492;2022-11-15T03:06:35;13.15;;;11.63;;
74152;SDS011;62505;46.070;14.492;2022-11-15T03:09:09;14.43;;;11.15;;
74152;SDS011;62505;46.070;14.492;2022-11-15T03:11:43;13.00;;;11.20;;
74152;SDS011;62505;46.070;14.492;2022-11-15T03:14:17;14.73;;;12.52;;
74152;SDS011;62505;46.070;14.492;2022-11-15T03:16:51;13.18;;;11.27;;
74152;SDS011;62505;46.070;14.492;2022-11-15T03:19:26;12.63;;;11.32;;
74152;SDS011;62505;46.070;14.492;2022-11-15T03:21:58;14.68;;;11.95;;
74152;SDS011;62505;46.070;14.492;2022-11-15T03:24:28;14.52;;;11.82;;
74152;SDS011;62505;46.070;14.492;2022-11-15T03:26:59;14.23;;;11.75;;
74152;SDS011;62505;46.070;14.492;2022-11-15T03:29:29;13.23;;;11.13;;
74152;SDS011;62505;46.070;14.492;2022-11-15T03:32:02;13.43;;;11.38;;
74152;SDS011;62505;46.070;14.492;2022-11-15T03:34:34;15.63;;;12.35;;
74152;SDS011;62505;46.070;14.492;2022-11-15T03:37:04;13.73;;;11.73;;
74152;SDS011;62505;46.070;14.492;2022-11-15T03:39:32;14.27;;;11.85;;
74152;SDS011;62505;46.070;14.492;2022-11-15T03:42:04;14.05;;;11.32;;
74152;SDS011;62505;46.070;14.492;2022-11-15T03:44:40;13.52;;;11.27;;
74152;SDS011;62505;46.070;14.492;2022-11-15T03:47:15;14.68;;;11.20;;
74152;SDS011;62505;46.070;14.492;2022-11-15T03:49:46;13.02;;;10.77;;
74152;SDS011;62505;46.070;14.492;2022-11-15T03:52:17;13.60;;;11.32;;
74152;SDS011;62505;46.070;14.492;2022-11-15T03:54:50;13.35;;;11.57;;
74152;SDS011;62505;46.070;14.492;2022-11-15T03:57:18;14.65;;;11.73;;
74152;SDS011;62505;46.070;14.492;2022-11-15T03:59:45;13.68;;;11.82;;
74152;SDS011;62505;46.070;14.492;2022-11-15T04:02:14;12.73;;;11.35;;
74152;SDS011;62505;46.070;14.492;2022-11-15T04:04:40;13.52;;;11.07;;
74152;SDS011;62505;46.070;14.492;2022-11-15T04:07:07;14.13;;;11.40;;
74152;SDS011;62505;46.070;14.492;2022-11-15T04:09:34;12.77;;;10.88;;
74152;SDS011;62505;46.070;14.492;2022-11-15T04:12:22;12.70;;;11.27;;
74152;SDS011;62505;46.070;14.492;2022-11-15T04:14:57;13.65;;;11.35;;
74152;SDS011;62505;46.070;14.492;2022-11-15T04:17:35;13.90;;;11.63;;
74152;SDS011;62505;46.070;14.492;2022-11-15T04:20:03;13.73;;;11.38;;
74152;SDS011;62505;46.070;14.492;2022-11-15T04:22:48;12.43;;;10.95;;
74152;SDS011;62505;46.070;14.492;2022-11-15T04:25:35;13.85;;;11.77;;
74152;SDS011;62505;46.070;14.492;2022-11-15T04:28:02;14.02;;;11.15;;
74152;SDS011;62505;46.070;14.492;2022-11-15T04:30:29;13.85;;;11.10;;
74152;SDS011;62505;46.070;14.492;2022-11-15T04:32:58;12.55;;;11.23;;
74152;SDS011;62505;46.070;14.492;2022-11-15T04:35:24;14.60;;;11.30;;
74152;SDS011;62505;46.070;14.492;2022-11-15T04:37:51;13.73;;;11.13;;
74152;SDS011;62505;46.070;14.492;2022-11-15T04:40:19;13.52;;;10.77;;
74152;SDS011;62505;46.070;14.492;2022-11-15T04:42:45;14.43;;;11.38;;
74152;SDS011;62505;46.070;14.492;2022-11-15T04:45:12;12.75;;;10.65;;
74152;SDS011;62505;46.070;14.492;2022-11-15T04:47:39;13.45;;;11.30;;
74152;SDS011;62505;46.070;14.492;2022-11-15T04:50:10;12.60;;;11.30;;
74152;SDS011;62505;46.070;14.492;2022-11-15T04:52:38;13.90;;;10.70;;
74152;SDS011;62505;46.070;14.492;2022-11-15T04:55:06;14.27;;;11.10;;
74152;SDS011;62505;46.070;14.492;2022-11-15T04:57:33;12.65;;;10.80;;
74152;SDS011;62505;46.070;14.492;2022-11-15T05:00:00;13.98;;;11.13;;
74152;SDS011;62505;46.070;14.492;2022-11-15T05:02:27;13.45;;;11.35;;
74152;SDS011;62505;46.070;14.492;2022-11-15T05:05:15;14.07;;;11.77;;
74152;SDS011;62505;46.070;14.492;2022-11-15T05:07:42;11.93;;;10.65;;
74152;SDS011;62505;46.070;14.492;2022-11-15T05:10:09;11.82;;;10.40;;
74152;SDS011;62505;46.070;14.492;2022-11-15T05:12:36;13.02;;;11.07;;
74152;SDS011;62505;46.070;14.492;2022-11-15T05:15:03;12.45;;;10.68;;
74152;SDS011;62505;46.070;14.492;2022-11-15T05:17:31;14.35;;;11.70;;
74152;SDS011;62505;46.070;14.492;2022-11-15T05:19:58;13.15;;;11.07;;
74152;SDS011;62505;46.070;14.492;2022-11-15T05:22:26;12.98;;;10.85;;
74152;SDS011;62505;46.070;14.492;2022-11-15T05:24:53;12.38;;;10.63;;
74152;SDS011;62505;46.070;14.492;2022-11-15T05:27:20;11.95;;;10.20;;
74152;SDS011;62505;46.070;14.492;2022-11-15T05:29:47;13.48;;;11.23;;
74152;SDS011;62505;46.070;14.492;2022-11-15T05:32:14;11.93;;;10.20;;
74152;SDS011;62505;46.070;14.492;2022-11-15T05:34:44;13.38;;;11.23;;
74152;SDS011;62505;46.070;14.492;2022-11-15T05:37:11;12.77;;;11.15;;
74152;SDS011;62505;46.070;14.492;2022-11-15T05:39:40;13.52;;;10.82;;
74152;SDS011;62505;46.070;14.492;2022-11-15T05:42:08;14.30;;;11.75;;
74152;SDS011;62505;46.070;14.492;2022-11-15T05:44:36;12.00;;;10.43;;
74152;SDS011;62505;46.070;14.492;2022-11-15T05:47:05;12.20;;;10.77;;
74152;SDS011;62505;46.070;14.492;2022-11-15T05:49:36;12.13;;;10.65;;
74152;SDS011;62505;46.070;14.492;2022-11-15T05:52:06;12.23;;;10.43;;
74152;SDS011;62505;46.070;14.492;2022-11-15T05:54:35;11.68;;;10.13;;
74152;SDS011;62505;46.070;14.492;2022-11-15T05:57:04;12.48;;;10.27;;
74152;SDS011;62505;46.070;14.492;2022-11-15T05:59:32;12.73;;;10.57;;
74152;SDS011;62505;46.070;14.492;2022-11-15T06:02:00;13.18;;;10.85;;
74152;SDS011;62505;46.070;14.492;2022-11-15T06:04:30;12.95;;;10.63;;
74152;SDS011;62505;46.070;14.492;2022-11-15T06:06:58;11.38;;;10.13;;
74152;SDS011;62505;46.070;14.492;2022-11-15T06:09:25;12.63;;;10.95;;
74152;SDS011;62505;46.070;14.492;2022-11-15T06:11:52;12.60;;;10.10;;
74152;SDS011;62505;46.070;14.492;2022-11-15T06:14:20;12.60;;;10.40;;
74152;SDS011;62505;46.070;14.492;2022-11-15T06:16:47;12.70;;;10.77;;
74152;SDS011;62505;46.070;14.492;2022-11-15T06:19:14;12.45;;;10.77;;
74152;SDS011;62505;46.070;14.492;2022-11-15T06:21:41;12.00;;;10.35;;
74152;SDS011;62505;46.070;14.492;2022-11-15T06:24:08;11.90;;;10.60;;
74152;SDS011;62505;46.070;14.492;2022-11-15T06:26:35;13.50;;;10.73;;
74152;SDS011;62505;46.070;14.492;2022-11-15T06:29:02;12.00;;;9.50;;
74152;SDS011;62505;46.070;14.492;2022-11-15T06:31:32;13.25;;;11.20;;
74152;SDS011;62505;46.070;14.492;2022-11-15T06:33:59;13.50;;;10.63;;
74152;SDS011;62505;46.070;14.492;2022-11-15T06:36:26;11.70;;;10.15;;
74152;SDS011;62505;46.070;14.492;2022-11-15T06:38:53;13.20;;;11.00;;
74152;SDS011;62505;46.070;14.492;2022-11-15T06:41:20;13.45;;;11.30;;
74152;SDS011;62505;46.070;14.492;2022-11-15T06:43:47;12.77;;;10.82;;
74152;SDS011;62505;46.070;14.492;2022-11-15T06:46:14;12.77;;;10.57;;
74152;SDS011;62505;46.070;14.492;2022-11-15T06:48:42;12.43;;;10.05;;
74152;SDS011;62505;46.070;14.492;2022-11-15T06:51:09;12.23;;;10.30;;
74152;SDS011;62505;46.070;14.492;2022-11-15T06:53:36;12.35;;;10.90;;
74152;SDS011;62505;46.070;14.492;2022-11-15T06:56:04;11.50;;;10.25;;
74152;SDS011;62505;46.070;14.492;2022-11-15T06:58:32;12.02;;;10.52;;
74152;SDS011;62505;46.070;14.492;2022-11-15T07:01:00;13.50;;;10.43;;
74152;SDS011;62505;46.070;14.492;2022-11-15T07:03:28;12.38;;;10.30;;
74152;SDS011;62505;46.070;14.492;2022-11-15T07:05:56;13.50;;;10.25;;
74152;SDS011;62505;46.070;14.492;2022-11-15T07:08:24;11.43;;;10.23;;
74152;SDS011;62505;46.070;14.492;2022-11-15T07:10:54;12.48;;;10.13;;
74152;SDS011;62505;46.070;14.492;2022-11-15T07:13:24;11.73;;;9.52;;
74152;SDS011;62505;46.070;14.492;2022-11-15T07:15:51;12.70;;;10.73;;
74152;SDS011;62505;46.070;14.492;2022-11-15T07:18:18;12.60;;;10.68;;
74152;SDS011;62505;46.070;14.492;2022-11-15T07:20:45;11.57;;;10.02;;
74152;SDS011;62505;46.070;14.492;2022-11-15T07:23:13;12.40;;;10.18;;
74152;SDS011;62505;46.070;14.492;2022-11-15T07:25:40;11.23;;;10.10;;
74152;SDS011;62505;46.070;14.492;2022-11-15T07:28:07;11.30;;;9.88;;
74152;SDS011;62505;46.070;14.492;2022-11-15T07:30:34;11.07;;;9.70;;
74152;SDS011;62505;46.070;14.492;2022-11-15T07:33:01;12.52;;;10.63;;
74152;SDS011;62505;46.070;14.492;2022-11-15T07:35:28;14.07;;;9.80;;
74152;SDS011;62505;46.070;14.492;2022-11-15T07:37:56;14.48;;;11.38;;
74152;SDS011;62505;46.070;14.492;2022-11-15T07:40:26;14.15;;;10.63;;
74152;SDS011;62505;46.070;14.492;2022-11-15T07:42:58;14.88;;;11.23;;
74152;SDS011;62505;46.070;14.492;2022-11-15T07:45:26;15.82;;;11.98;;
74152;SDS011;62505;46.070;14.492;2022-11-15T07:47:53;16.85;;;11.15;;
74152;SDS011;62505;46.070;14.492;2022-11-15T07:50:21;13.80;;;11.02;;
74152;SDS011;62505;46.070;14.492;2022-11-15T07:52:52;18.35;;;11.57;;
74152;SDS011;62505;46.070;14.492;2022-11-15T07:55:19;15.52;;;11.30;;
74152;SDS011;62505;46.070;14.492;2022-11-15T07:57:48;22.73;;;11.65;;
74152;SDS011;62505;46.070;14.492;2022-11-15T08:00:15;16.05;;;10.82;;
74152;SDS011;62505;46.070;14.492;2022-11-15T08:02:43;17.27;;;11.80;;
74152;SDS011;62505;46.070;14.492;2022-11-15T08:05:10;14.57;;;10.38;;
74152;SDS011;62505;46.070;14.492;2022-11-15T08:07:37;13.82;;;10.90;;
74152;SDS011;62505;46.070;14.492;2022-11-15T08:10:05;14.55;;;10.48;;
74152;SDS011;62505;46.070;14.492;2022-11-15T08:12:33;14.55;;;11.20;;
74152;SDS011;62505;46.070;14.492;2022-11-15T08:15:01;14.68;;;11.20;;
74152;SDS011;62505;46.070;14.492;2022-11-15T08:17:29;14.85;;;10.50;;
74152;SDS011;62505;46.070;14.492;2022-11-15T08:19:57;21.50;;;11.02;;
74152;SDS011;62505;46.070;14.492;2022-11-15T08:22:25;15.35;;;10.60;;
74152;SDS011;62505;46.070;14.492;2022-11-15T08:24:52;15.13;;;11.23;;
74152;SDS011;62505;46.070;14.492;2022-11-15T08:27:18;12.80;;;10.02;;
74152;SDS011;62505;46.070;14.492;2022-11-15T08:29:46;13.68;;;10.80;;
74152;SDS011;62505;46.070;14.492;2022-11-15T08:32:16;14.70;;;10.77;;
74152;SDS011;62505;46.070;14.492;2022-11-15T08:34:45;14.25;;;10.63;;
74152;SDS011;62505;46.070;14.492;2022-11-15T08:37:12;15.95;;;10.52;;
74152;SDS011;62505;46.070;14.492;2022-11-15T08:39:39;16.05;;;10.95;;
74152;SDS011;62505;46.070;14.492;2022-11-15T08:42:06;16.00;;;11.15;;
74152;SDS011;62505;46.070;14.492;2022-11-15T08:44:33;14.27;;;11.02;;
74152;SDS011;62505;46.070;14.492;2022-11-15T08:47:00;13.20;;;10.75;;
74152;SDS011;62505;46.070;14.492;2022-11-15T08:49:28;13.25;;;10.35;;
74152;SDS011;62505;46.070;14.492;2022-11-15T08:51:55;15.45;;;10.63;;
74152;SDS011;62505;46.070;14.492;2022-11-15T08:54:22;13.77;;;10.80;;
74152;SDS011;62505;46.070;14.492;2022-11-15T08:56:49;13.60;;;10.18;;
74152;SDS011;62505;46.070;14.492;2022-11-15T08:59:16;15.65;;;10.05;;
74152;SDS011;62505;46.070;14.492;2022-11-15T09:01:43;15.55;;;10.85;;
74152;SDS011;62505;46.070;14.492;2022-11-15T09:04:13;13.95;;;10.10;;
74152;SDS011;62505;46.070;14.492;2022-11-15T09:06:41;13.80;;;9.90;;
74152;SDS011;62505;46.070;14.492;2022-11-15T09:09:08;15.02;;;10.68;;
74152;SDS011;62505;46.070;14.492;2022-11-15T09:11:35;15.68;;;10.73;;
74152;SDS011;62505;46.070;14.492;2022-11-15T09:14:02;13.98;;;10.85;;
74152;SDS011;62505;46.070;14.492;2022-11-15T09:16:30;13.75;;;10.68;;
74152;SDS011;62505;46.070;14.492;2022-11-15T09:18:57;14.73;;;10.43;;
74152;SDS011;62505;46.070;14.492;2022-11-15T09:21:24;14.55;;;10.07;;
74152;SDS011;62505;46.070;14.492;2022-11-15T09:23:52;13.23;;;10.60;;
74152;SDS011;62505;46.070;14.492;2022-11-15T09:26:19;14.40;;;10.40;;
74152;SDS011;62505;46.070;14.492;2022-11-15T09:28:46;15.50;;;10.32;;
74152;SDS011;62505;46.070;14.492;2022-11-15T09:31:13;18.00;;;11.27;;
74152;SDS011;62505;46.070;14.492;2022-11-15T09:33:42;13.85;;;10.05;;
74152;SDS011;62505;46.070;14.492;2022-11-15T09:36:10;16.13;;;10.82;;
74152;SDS011;62505;46.070;14.492;2022-11-15T09:38:37;14.32;;;10.30;;
74152;SDS011;62505;46.070;14.492;2022-11-15T09:41:13;14.02;;;10.07;;
74152;SDS011;62505;46.070;14.492;2022-11-15T09:44:05;16.52;;;11.00;;
74152;SDS011;62505;46.070;14.492;2022-11-15T09:46:42;14.52;;;10.55;;
74152;SDS011;62505;46.070;14.492;2022-11-15T09:49:21;15.50;;;10.50;;
74152;SDS011;62505;46.070;14.492;2022-11-15T09:51:50;13.68;;;10.68;;
74152;SDS011;62505;46.070;14.492;2022-11-15T09:54:26;13.25;;;10.02;;
74152;SDS011;62505;46.070;14.492;2022-11-15T09:57:01;13.35;;;9.98;;
74152;SDS011;62505;46.070;14.492;2022-11-15T09:59:39;16.73;;;10.38;;
74152;SDS011;62505;46.070;14.492;2022-11-15T10:02:23;14.82;;;10.93;;
74152;SDS011;62505;46.070;14.492;2022-11-15T10:05:10;12.52;;;10.00;;
74152;SDS011;62505;46.070;14.492;2022-11-15T10:07:42;13.93;;;10.68;;
74152;SDS011;62505;46.070;14.492;2022-11-15T10:10:23;16.13;;;11.23;;
74152;SDS011;62505;46.070;14.492;2022-11-15T10:12:56;15.73;;;10.50;;
74152;SDS011;62505;46.070;14.492;2022-11-15T10:15:24;14.88;;;10.82;;
74152;SDS011;62505;46.070;14.492;2022-11-15T10:20:46;13.45;;;10.13;;
74152;SDS011;62505;46.070;14.492;2022-11-15T10:23:15;14.93;;;10.82;;
74152;SDS011;62505;46.070;14.492;2022-11-15T10:25:45;15.27;;;11.13;;
74152;SDS011;62505;46.070;14.492;2022-11-15T10:28:16;14.57;;;10.93;;
74152;SDS011;62505;46.070;14.492;2022-11-15T10:30:48;13.20;;;10.45;;
74152;SDS011;62505;46.070;14.492;2022-11-15T10:33:21;12.40;;;9.82;;
74152;SDS011;62505;46.070;14.492;2022-11-15T10:38:55;15.60;;;10.57;;
74152;SDS011;62505;46.070;14.492;2022-11-15T10:41:31;12.30;;;10.10;;
74152;SDS011;62505;46.070;14.492;2022-11-15T10:44:07;13.40;;;9.70;;
74152;SDS011;62505;46.070;14.492;2022-11-15T10:46:39;16.90;;;10.55;;
74152;SDS011;62505;46.070;14.492;2022-11-15T10:49:12;15.13;;;9.77;;
74152;SDS011;62505;46.070;14.492;2022-11-15T10:51:41;15.43;;;10.48;;
74152;SDS011;62505;46.070;14.492;2022-11-15T10:54:11;13.27;;;10.23;;
74152;SDS011;62505;46.070;14.492;2022-11-15T10:56:41;14.52;;;10.05;;
74152;SDS011;62505;46.070;14.492;2022-11-15T10:59:16;15.85;;;10.27;;
74152;SDS011;62505;46.070;14.492;2022-11-15T11:01:49;14.77;;;11.00;;
74152;SDS011;62505;46.070;14.492;2022-11-15T11:04:16;15.90;;;11.57;;
74152;SDS011;62505;46.070;14.492;2022-11-15T11:06:47;14.75;;;10.70;;
74152;SDS011;62505;46.070;14.492;2022-11-15T11:09:23;13.70;;;10.45;;
74152;SDS011;62505;46.070;14.492;2022-11-15T11:11:55;13.65;;;10.32;;
74152;SDS011;62505;46.070;14.492;2022-11-15T11:14:24;14.32;;;10.00;;
74152;SDS011;62505;46.070;14.492;2022-11-15T11:16:54;16.70;;;10.35;;
74152;SDS011;62505;46.070;14.492;2022-11-15T11:19:37;15.82;;;9.88;;
74152;SDS011;62505;46.070;14.492;2022-11-15T11:22:23;22.35;;;11.57;;
74152;SDS011;62505;46.070;14.492;2022-11-15T11:24:58;19.70;;;10.73;;
74152;SDS011;62505;46.070;14.492;2022-11-15T11:27:41;19.05;;;12.07;;
74152;SDS011;62505;46.070;14.492;2022-11-15T11:30:17;23.58;;;11.30;;
74152;SDS011;62505;46.070;14.492;2022-11-15T11:32:50;25.98;;;12.43;;
74152;SDS011;62505;46.070;14.492;2022-11-15T11:35:26;25.08;;;11.20;;
74152;SDS011;62505;46.070;14.492;2022-11-15T11:38:00;28.88;;;12.25;;
74152;SDS011;62505;46.070;14.492;2022-11-15T11:40:43;22.95;;;11.70;;
74152;SDS011;62505;46.070;14.492;2022-11-15T11:43:16;27.80;;;13.30;;
74152;SDS011;62505;46.070;14.492;2022-11-15T11:46:05;30.08;;;12.00;;
74152;SDS011;62505;46.070;14.492;2022-11-15T11:48:40;23.73;;;11.85;;
74152;SDS011;62505;46.070;14.492;2022-11-15T11:51:11;26.70;;;12.50;;
74152;SDS011;62505;46.070;14.492;2022-11-15T11:53:45;25.63;;;12.35;;
74152;SDS011;62505;46.070;14.492;2022-11-15T11:56:22;25.23;;;11.82;;
74152;SDS011;62505;46.070;14.492;2022-11-15T11:58:52;25.08;;;11.80;;
74152;SDS011;62505;46.070;14.492;2022-11-15T12:01:23;32.33;;;11.70;;
74152;SDS011;62505;46.070;14.492;2022-11-15T12:03:54;26.33;;;11.63;;
74152;SDS011;62505;46.070;14.492;2022-11-15T12:06:29;25.27;;;11.50;;
74152;SDS011;62505;46.070;14.492;2022-11-15T12:09:01;20.40;;;10.90;;
74152;SDS011;62505;46.070;14.492;2022-11-15T12:11:35;24.08;;;11.63;;
74152;SDS011;62505;46.070;14.492;2022-11-15T12:14:10;26.95;;;12.13;;
74152;SDS011;62505;46.070;14.492;2022-11-15T12:16:44;26.35;;;11.73;;
74152;SDS011;62505;46.070;14.492;2022-11-15T12:19:10;23.27;;;11.57;;
74152;SDS011;62505;46.070;14.492;2022-11-15T12:21:39;25.70;;;11.43;;
74152;SDS011;62505;46.070;14.492;2022-11-15T12:24:12;27.55;;;11.50;;
74152;SDS011;62505;46.070;14.492;2022-11-15T12:26:47;21.67;;;11.45;;
74152;SDS011;62505;46.070;14.492;2022-11-15T12:29:20;22.17;;;10.90;;
74152;SDS011;62505;46.070;14.492;2022-11-15T12:31:54;26.00;;;12.20;;
74152;SDS011;62505;46.070;14.492;2022-11-15T12:40:18;19.58;;;10.57;;
74152;SDS011;62505;46.070;14.492;2022-11-15T12:42:57;22.48;;;10.90;;
74152;SDS011;62505;46.070;14.492;2022-11-15T12:45:27;29.42;;;11.68;;
74152;SDS011;62505;46.070;14.492;2022-11-15T12:48:20;23.35;;;11.43;;
74152;SDS011;62505;46.070;14.492;2022-11-15T12:51:02;23.10;;;11.77;;
74152;SDS011;62505;46.070;14.492;2022-11-15T12:53:30;23.08;;;11.68;;
74152;SDS011;62505;46.070;14.492;2022-11-15T12:58:46;21.08;;;11.25;;
74152;SDS011;62505;46.070;14.492;2022-11-15T13:04:22;21.08;;;11.65;;
74152;SDS011;62505;46.070;14.492;2022-11-15T13:06:52;35.90;;;12.63;;
74152;SDS011;62505;46.070;14.492;2022-11-15T13:18:32;30.05;;;11.82;;
74152;SDS011;62505;46.070;14.492;2022-11-15T13:21:17;29.98;;;13.57;;
74152;SDS011;62505;46.070;14.492;2022-11-15T13:24:04;31.35;;;12.70;;
74152;SDS011;62505;46.070;14.492;2022-11-15T13:26:37;33.03;;;13.98;;
74152;SDS011;62505;46.070;14.492;2022-11-15T13:29:12;27.67;;;13.98;;
74152;SDS011;62505;46.070;14.492;2022-11-15T13:31:43;40.10;;;14.50;;
74152;SDS011;62505;46.070;14.492;2022-11-15T13:34:16;37.38;;;13.93;;
74152;SDS011;62505;46.070;14.492;2022-11-15T13:36:51;28.27;;;13.45;;
74152;SDS011;62505;46.070;14.492;2022-11-15T13:39:29;36.58;;;14.25;;
74152;SDS011;62505;46.070;14.492;2022-11-15T13:41:57;41.90;;;16.05;;
74152;SDS011;62505;46.070;14.492;2022-11-15T13:44:25;30.70;;;14.20;;
74152;SDS011;62505;46.070;14.492;2022-11-15T13:47:00;37.97;;;16.67;;
74152;SDS011;62505;46.070;14.492;2022-11-15T13:49:29;48.65;;;18.75;;
74152;SDS011;62505;46.070;14.492;2022-11-15T13:51:59;42.47;;;17.42;;
74152;SDS011;62505;46.070;14.492;2022-11-15T13:54:27;40.63;;;17.38;;
74152;SDS011;62505;46.070;14.492;2022-11-15T13:56:59;45.25;;;16.73;;
74152;SDS011;62505;46.070;14.492;2022-11-15T13:59:30;37.38;;;17.10;;
74152;SDS011;62505;46.070;14.492;2022-11-15T14:02:03;43.35;;;17.20;;
74152;SDS011;62505;46.070;14.492;2022-11-15T14:04:45;39.42;;;16.13;;
74152;SDS011;62505;46.070;14.492;2022-11-15T14:07:18;31.02;;;15.52;;
74152;SDS011;62505;46.070;14.492;2022-11-15T14:09:49;38.42;;;15.30;;
74152;SDS011;62505;46.070;14.492;2022-11-15T14:12:23;42.70;;;17.42;;
74152;SDS011;62505;46.070;14.492;2022-11-15T14:14:52;43.55;;;17.83;;
74152;SDS011;62505;46.070;14.492;2022-11-15T14:17:20;36.67;;;15.57;;
74152;SDS011;62505;46.070;14.492;2022-11-15T14:19:59;41.15;;;17.00;;
74152;SDS011;62505;46.070;14.492;2022-11-15T14:22:28;45.35;;;15.27;;
74152;SDS011;62505;46.070;14.492;2022-11-15T14:28:10;32.65;;;15.43;;
74152;SDS011;62505;46.070;14.492;2022-11-15T14:30:39;28.35;;;14.40;;
74152;SDS011;62505;46.070;14.492;2022-11-15T14:33:18;36.03;;;15.43;;
74152;SDS011;62505;46.070;14.492;2022-11-15T14:35:46;41.13;;;15.40;;
74152;SDS011;62505;46.070;14.492;2022-11-15T14:38:15;29.75;;;15.18;;
74152;SDS011;62505;46.070;14.492;2022-11-15T14:40:42;33.55;;;15.02;;
74152;SDS011;62505;46.070;14.492;2022-11-15T14:43:10;28.60;;;15.00;;
74152;SDS011;62505;46.070;14.492;2022-11-15T14:45:37;31.27;;;14.27;;
74152;SDS011;62505;46.070;14.492;2022-11-15T14:48:05;29.38;;;14.90;;
74152;SDS011;62505;46.070;14.492;2022-11-15T14:50:32;30.00;;;14.75;;
74152;SDS011;62505;46.070;14.492;2022-11-15T14:53:00;33.13;;;15.50;;
74152;SDS011;62505;46.070;14.492;2022-11-15T14:55:29;35.58;;;16.58;;
74152;SDS011;62505;46.070;14.492;2022-11-15T14:58:00;35.45;;;14.88;;
74152;SDS011;62505;46.070;14.492;2022-11-15T15:00:28;38.67;;;16.45;;
74152;SDS011;62505;46.070;14.492;2022-11-15T15:02:55;30.73;;;15.25;;
74152;SDS011;62505;46.070;14.492;2022-11-15T15:05:23;39.42;;;14.95;;
74152;SDS011;62505;46.070;14.492;2022-11-15T15:07:51;35.45;;;15.93;;